Time;durP1;ratioP1;P1;durP2;ratioP2;P2;SDS_P1;SDS_P2;PMS_P1;PMS_P2;Temp;Humidity;BMP_temperature;BMP_pressure;BME280_temperature;BME280_humidity;BME280_pressure;Samples;Min_cycle;Max_cycle;Signal;HPM_P1;HPM_P2
2023/12/08 00:00:34;;;;;;;;;;;;;;;5.28;67.31;100255.56;4414313;32;34071;-75
2023/12/08 00:03:01;;;;;;;;;;;;;;;5.38;66.96;100256.25;4417333;32;34821;-75
2023/12/08 00:05:29;;;;;;;;;;;;;;;5.13;67.33;100275.00;4402805;32;31902;-75
2023/12/08 00:07:56;;;;;;;;;;;;;;;5.03;67.71;100269.97;4417852;32;34339;-75
2023/12/08 00:10:24;;;;;;;;;;;;;;;4.85;68.21;100275.53;4418328;32;34804;-75
2023/12/08 00:12:51;;;;;;;;;;;;;;;4.88;67.79;100278.31;4419693;32;34420;-75
2023/12/08 00:15:19;;;;;;;;;;;;;;;5.01;67.70;100281.81;4417804;32;34312;-75
2023/12/08 00:17:46;;;;;;;;;;;;;;;5.11;67.23;100281.69;4418061;32;33120;-75
2023/12/08 00:20:14;;;;;;;;;;;;;;;5.28;66.42;100283.84;4412669;32;33691;-75
2023/12/08 00:22:41;;;;;;;;;;;;;;;5.34;65.44;100285.06;4417579;32;34783;-75
2023/12/08 00:25:10;;;;;;;;;;;;;;;5.23;65.79;100276.56;4415477;32;33947;-75
2023/12/08 00:27:38;;;;;;;;;;;;;;;5.20;65.73;100276.38;4402764;32;33718;-75
2023/12/08 00:30:05;;;;;;;;;;;;;;;5.19;65.51;100280.56;4415929;32;35080;-75
2023/12/08 00:32:33;;;;;;;;;;;;;;;5.22;65.45;100280.81;4418623;32;34232;-75
2023/12/08 00:35:00;;;;;;;;;;;;;;;5.20;65.48;100287.53;4416899;32;33493;-75
2023/12/08 00:37:28;;;;;;;;;;;;;;;5.19;65.35;100293.41;4417683;32;35093;-75
2023/12/08 00:39:56;;;;;;;;;;;;;;;5.00;66.14;100297.97;4403562;32;34319;-75
2023/12/08 00:42:23;;;;;;;;;;;;;;;4.90;66.51;100292.13;4418039;32;34329;-75
2023/12/08 00:44:51;;;;;;;;;;;;;;;4.92;66.97;100295.75;4418341;32;33399;-75
2023/12/08 00:47:18;;;;;;;;;;;;;;;4.86;67.06;100302.97;4404938;32;33870;-75
2023/12/08 00:49:45;;;;;;;;;;;;;;;4.83;66.83;100300.19;4411206;32;35012;-75
2023/12/08 00:52:13;;;;;;;;;;;;;;;4.81;66.71;100296.62;4416699;32;34682;-75
2023/12/08 00:54:40;;;;;;;;;;;;;;;4.82;66.79;100305.19;4415198;32;33875;-75
2023/12/08 00:57:08;;;;;;;;;;;;;;;4.90;66.42;100307.53;4418285;32;34282;-75
2023/12/08 00:59:35;;;;;;;;;;;;;;;4.80;66.83;100310.22;4415365;32;34613;-75
2023/12/08 01:02:03;;;;;;;;;;;;;;;4.71;67.12;100314.63;4417130;32;34183;-75
2023/12/08 01:04:30;;;;;;;;;;;;;;;4.63;67.58;100306.34;4414649;32;34249;-75
2023/12/08 01:06:58;;;;;;;;;;;;;;;4.66;67.13;100310.84;4414683;32;33512;-75
2023/12/08 01:09:26;;;;;;;;;;;;;;;4.67;66.91;100313.50;4415251;32;34277;-75
2023/12/08 01:11:53;;;;;;;;;;;;;;;4.65;67.09;100314.19;4416121;32;35155;-75
2023/12/08 01:14:21;;;;;;;;;;;;;;;4.62;67.40;100308.81;4415652;32;34345;-75
2023/12/08 01:16:48;;;;;;;;;;;;;;;4.67;67.34;100308.37;4403764;32;33728;-75
2023/12/08 01:19:16;;;;;;;;;;;;;;;4.61;67.40;100314.72;4417777;32;33100;-75
2023/12/08 01:21:44;;;;;;;;;;;;;;;4.75;67.12;100316.66;4416229;32;34548;-75
2023/12/08 01:24:11;;;;;;;;;;;;;;;4.64;67.38;100318.41;4414161;32;34257;-75
2023/12/08 01:26:43;;;;;;;;;;;;;;;4.80;66.29;100325.59;4417175;32;34031;-75
2023/12/08 01:29:11;;;;;;;;;;;;;;;4.86;65.79;100326.06;4403751;32;32431;-75
2023/12/08 01:31:38;;;;;;;;;;;;;;;4.78;66.17;100326.28;4415215;32;36195;-75
2023/12/08 01:34:06;;;;;;;;;;;;;;;4.89;65.53;100331.44;4416633;32;33699;-75
2023/12/08 01:36:33;;;;;;;;;;;;;;;4.77;65.84;100329.59;4415382;32;35018;-75
2023/12/08 01:39:10;;;;;;;;;;;;;;;4.56;66.95;100318.59;4416193;32;32949;-75
2023/12/08 01:41:38;;;;;;;;;;;;;;;4.44;67.49;100321.13;4414555;32;33800;-75
2023/12/08 01:44:05;;;;;;;;;;;;;;;4.62;67.16;100322.53;4416455;32;34229;-75
2023/12/08 01:46:33;;;;;;;;;;;;;;;4.68;67.17;100324.69;4416117;32;33651;-75
2023/12/08 01:49:01;;;;;;;;;;;;;;;4.59;67.18;100313.72;4418795;32;33046;-75
2023/12/08 01:51:29;;;;;;;;;;;;;;;4.54;67.56;100308.25;4418308;32;34414;-75
2023/12/08 01:53:57;;;;;;;;;;;;;;;4.63;67.35;100306.34;4418010;32;32624;-75
2023/12/08 01:56:25;;;;;;;;;;;;;;;4.44;67.74;100309.22;4402789;32;31976;-75
2023/12/08 01:58:53;;;;;;;;;;;;;;;4.84;66.63;100308.78;4412916;32;34150;-75
2023/12/08 02:01:21;;;;;;;;;;;;;;;4.76;66.54;100303.06;4408859;32;34177;-75
2023/12/08 02:03:50;;;;;;;;;;;;;;;4.80;66.47;100302.50;4414000;32;34175;-75
2023/12/08 02:06:18;;;;;;;;;;;;;;;4.72;66.76;100303.59;4402325;32;34339;-75
2023/12/08 02:08:46;;;;;;;;;;;;;;;4.61;67.16;100309.59;4403443;32;34213;-75
2023/12/08 02:11:14;;;;;;;;;;;;;;;4.55;67.32;100302.31;4403244;32;32552;-75
2023/12/08 02:13:44;;;;;;;;;;;;;;;4.69;67.12;100306.84;4417706;32;33396;-75
2023/12/08 02:16:18;;;;;;;;;;;;;;;4.82;66.89;100303.50;4417496;32;33960;-75
2023/12/08 02:18:46;;;;;;;;;;;;;;;4.62;67.49;100303.69;4404425;32;34492;-75
2023/12/08 02:21:16;;;;;;;;;;;;;;;4.61;67.55;100301.91;4417049;32;35236;-75
2023/12/08 02:23:49;;;;;;;;;;;;;;;4.76;67.31;100303.06;4416256;32;33505;-75
2023/12/08 02:26:17;;;;;;;;;;;;;;;4.90;66.66;100297.28;4417167;32;32970;-75
2023/12/08 02:28:44;;;;;;;;;;;;;;;4.72;67.06;100295.91;4402580;32;34790;-75
2023/12/08 02:31:12;;;;;;;;;;;;;;;4.73;67.05;100296.03;4403722;32;34388;-75
2023/12/08 02:33:40;;;;;;;;;;;;;;;4.75;67.08;100296.12;4402439;32;33393;-75
2023/12/08 02:36:07;;;;;;;;;;;;;;;4.69;67.34;100296.59;4391129;32;33405;-75
2023/12/08 02:38:34;;;;;;;;;;;;;;;4.75;67.34;100296.12;4391006;32;32297;-75
2023/12/08 02:41:02;;;;;;;;;;;;;;;4.70;66.96;100300.03;4414473;32;33245;-75
2023/12/08 02:43:29;;;;;;;;;;;;;;;4.74;66.94;100307.19;4402286;32;34202;-75
2023/12/08 02:45:56;;;;;;;;;;;;;;;4.79;66.33;100303.31;4413102;32;33818;-75
2023/12/08 02:48:24;;;;;;;;;;;;;;;4.68;66.93;100304.16;4412582;32;34703;-75
2023/12/08 02:50:52;;;;;;;;;;;;;;;4.90;65.73;100302.41;4403279;32;34111;-75
2023/12/08 02:53:19;;;;;;;;;;;;;;;4.75;66.03;100305.50;4416780;32;33499;-75
2023/12/08 02:55:47;;;;;;;;;;;;;;;4.48;67.03;100303.53;4414975;32;33752;-75
2023/12/08 02:58:14;;;;;;;;;;;;;;;4.51;67.26;100301.19;4416864;32;33987;-75
2023/12/08 03:00:41;;;;;;;;;;;;;;;4.80;66.65;100305.06;4415460;32;35025;-75
2023/12/08 03:03:09;;;;;;;;;;;;;;;4.80;66.45;100305.06;4412013;32;32905;-75
2023/12/08 03:05:36;;;;;;;;;;;;;;;4.79;66.58;100307.53;4410238;32;34728;-75
2023/12/08 03:08:04;;;;;;;;;;;;;;;4.76;66.55;100303.06;4413534;32;34238;-75
2023/12/08 03:10:31;;;;;;;;;;;;;;;4.89;65.57;100305.78;4415765;32;34581;-75
2023/12/08 03:12:59;;;;;;;;;;;;;;;4.72;66.14;100306.19;4414398;32;34183;-75
2023/12/08 03:15:27;;;;;;;;;;;;;;;4.47;67.21;100299.16;4411546;32;35872;-75
2023/12/08 03:17:54;;;;;;;;;;;;;;;4.67;67.03;100292.97;4399956;32;34744;-75
2023/12/08 03:20:22;;;;;;;;;;;;;;;4.56;67.34;100292.94;4411295;32;33970;-75
2023/12/08 03:22:49;;;;;;;;;;;;;;;4.45;67.59;100295.59;4413403;32;34182;-75
2023/12/08 03:25:16;;;;;;;;;;;;;;;4.61;67.23;100296.75;4416977;32;34702;-75
2023/12/08 03:27:43;;;;;;;;;;;;;;;4.44;67.45;100293.81;4416127;32;34333;-74
2023/12/08 03:30:12;;;;;;;;;;;;;;;4.30;67.98;100295.28;4402935;32;34308;-74
2023/12/08 03:32:39;;;;;;;;;;;;;;;4.63;67.12;100298.66;4389768;32;31851;-75
2023/12/08 03:35:07;;;;;;;;;;;;;;;4.50;67.12;100299.41;4415402;32;32952;-75
2023/12/08 03:37:34;;;;;;;;;;;;;;;4.66;66.57;100305.72;4412931;32;33995;-75
2023/12/08 03:40:02;;;;;;;;;;;;;;;4.49;66.70;100294.16;4411862;32;34562;-75
2023/12/08 03:42:34;;;;;;;;;;;;;;;4.58;66.36;100293.94;4417387;32;33208;-75
2023/12/08 03:45:03;;;;;;;;;;;;;;;4.63;66.23;100298.66;4402941;32;34881;-75
2023/12/08 03:47:30;;;;;;;;;;;;;;;4.56;66.21;100298.06;4426243;32;32947;-75
2023/12/08 03:49:57;;;;;;;;;;;;;;;4.57;65.37;100299.88;4411423;32;34040;-74
2023/12/08 03:52:25;;;;;;;;;;;;;;;4.34;66.06;100294.75;4415763;32;33393;-75
2023/12/08 03:54:52;;;;;;;;;;;;;;;4.34;65.88;100301.56;4415936;32;33548;-74
2023/12/08 03:57:20;;;;;;;;;;;;;;;4.35;65.83;100287.97;4413750;32;34344;-75
2023/12/08 03:59:47;;;;;;;;;;;;;;;4.24;66.25;100288.81;4411515;32;33776;-74
2023/12/08 04:02:15;;;;;;;;;;;;;;;4.33;66.02;100285.28;4411707;32;33501;-75
2023/12/08 04:04:42;;;;;;;;;;;;;;;4.29;66.29;100288.37;4411137;32;33786;-75
2023/12/08 04:07:09;;;;;;;;;;;;;;;4.28;66.51;100290.81;4415363;32;33946;-75
2023/12/08 04:09:37;;;;;;;;;;;;;;;4.13;66.76;100291.44;4415232;32;34359;-75
2023/12/08 04:12:04;;;;;;;;;;;;;;;4.09;67.15;100288.50;4401078;32;33186;-75
2023/12/08 04:14:32;;;;;;;;;;;;;;;4.13;67.13;100291.44;4413958;32;34055;-75
2023/12/08 04:16:59;;;;;;;;;;;;;;;4.16;67.10;100283.09;4414939;32;34222;-75
2023/12/08 04:19:28;;;;;;;;;;;;;;;4.31;66.92;100274.00;4416609;32;34370;-75
2023/12/08 04:21:56;;;;;;;;;;;;;;;4.32;66.94;100272.34;4413921;32;32352;-75
2023/12/08 04:24:23;;;;;;;;;;;;;;;4.37;66.71;100272.72;4413396;32;34900;-75
2023/12/08 04:26:51;;;;;;;;;;;;;;;4.22;66.72;100270.72;4414934;32;34564;-75
2023/12/08 04:29:21;;;;;;;;;;;;;;;4.38;66.56;100272.78;4416221;32;34534;-75
2023/12/08 04:31:48;;;;;;;;;;;;;;;4.40;66.40;100268.69;4407897;32;33074;-74
2023/12/08 04:34:15;;;;;;;;;;;;;;;4.55;66.38;100257.81;4411568;32;34709;-74
2023/12/08 04:36:43;;;;;;;;;;;;;;;4.64;65.90;100266.22;4414346;32;34616;-75
2023/12/08 04:39:10;;;;;;;;;;;;;;;4.56;66.46;100262.16;4414114;32;34380;-74
2023/12/08 04:41:38;;;;;;;;;;;;;;;4.71;66.08;100265.88;4414924;32;33277;-75
2023/12/08 04:44:05;;;;;;;;;;;;;;;4.72;66.14;100259.97;4416802;32;34634;-74
2023/12/08 04:46:32;;;;;;;;;;;;;;;4.75;66.08;100257.63;4415282;32;34293;-75
2023/12/08 04:49:00;;;;;;;;;;;;;;;4.74;66.09;100258.41;4399977;32;34431;-75
2023/12/08 04:51:28;;;;;;;;;;;;;;;4.72;66.01;100254.84;4416353;32;32638;-75
2023/12/08 04:53:58;;;;;;;;;;;;;;;4.72;66.03;100247.16;4415321;32;34804;-74
2023/12/08 04:56:26;;;;;;;;;;;;;;;4.59;66.24;100237.63;4416921;32;33773;-74
2023/12/08 04:58:53;;;;;;;;;;;;;;;4.45;66.87;100244.28;4418112;32;34172;-74
2023/12/08 05:01:20;;;;;;;;;;;;;;;4.27;67.75;100248.03;4415698;32;33529;-74
2023/12/08 05:03:48;;;;;;;;;;;;;;;4.44;67.66;100254.41;4399422;32;33392;-75
2023/12/08 05:06:16;;;;;;;;;;;;;;;4.61;67.19;100260.84;4413722;32;33947;-75
2023/12/08 05:08:43;;;;;;;;;;;;;;;4.51;67.45;100257.56;4416422;32;34422;-74
2023/12/08 05:11:11;;;;;;;;;;;;;;;4.48;67.55;100264.13;4415965;32;33450;-75
2023/12/08 05:13:38;;;;;;;;;;;;;;;4.65;67.14;100273.12;4416700;32;33967;-75
2023/12/08 05:16:07;;;;;;;;;;;;;;;4.57;67.48;100269.09;4416459;32;34269;-75
2023/12/08 05:18:35;;;;;;;;;;;;;;;4.69;67.08;100275.13;4404311;32;32978;-75
2023/12/08 05:21:02;;;;;;;;;;;;;;;4.87;65.91;100271.41;4414558;32;34926;-75
2023/12/08 05:23:30;;;;;;;;;;;;;;;4.79;65.56;100267.37;4417601;32;33999;-74
2023/12/08 05:25:57;;;;;;;;;;;;;;;4.66;66.55;100277.50;4415974;32;34544;-74
2023/12/08 05:28:25;;;;;;;;;;;;;;;4.55;67.10;100275.78;4417172;32;33215;-75
2023/12/08 05:30:55;;;;;;;;;;;;;;;4.80;66.19;100284.53;4414016;32;33475;-74
2023/12/08 05:33:22;;;;;;;;;;;;;;;4.79;66.36;100281.84;4403030;32;32559;-74
2023/12/08 05:35:49;;;;;;;;;;;;;;;4.61;66.85;100289.06;4415513;32;33806;-75
2023/12/08 05:38:17;;;;;;;;;;;;;;;4.78;66.07;100282.66;4415655;32;34473;-75
2023/12/08 05:40:44;;;;;;;;;;;;;;;4.70;66.50;100284.63;4415844;32;34231;-75
2023/12/08 05:43:11;;;;;;;;;;;;;;;4.63;67.07;100290.06;4415909;32;35021;-74
2023/12/08 05:45:39;;;;;;;;;;;;;;;4.72;67.02;100285.66;4416028;32;34032;-75
2023/12/08 05:48:06;;;;;;;;;;;;;;;4.85;66.27;100285.78;4410382;32;37023;-75
2023/12/08 05:50:34;;;;;;;;;;;;;;;4.89;66.11;100285.25;4416030;32;33302;-74
2023/12/08 05:53:01;;;;;;;;;;;;;;;4.82;65.96;100282.09;4415939;32;33890;-75
2023/12/08 05:55:29;;;;;;;;;;;;;;;4.82;66.05;100279.53;4417877;32;34217;-75
2023/12/08 05:57:56;;;;;;;;;;;;;;;4.84;66.08;100281.41;4415244;32;33507;-75
2023/12/08 06:00:23;;;;;;;;;;;;;;;4.74;66.64;100278.94;4415564;32;34193;-74
2023/12/08 06:02:51;;;;;;;;;;;;;;;4.71;66.72;100276.12;4413782;32;34808;-75
2023/12/08 06:05:19;;;;;;;;;;;;;;;4.61;67.27;100273.66;4413333;32;33943;-74
2023/12/08 06:07:46;;;;;;;;;;;;;;;4.82;66.57;100282.09;4413538;32;34037;-75
2023/12/08 06:10:14;;;;;;;;;;;;;;;4.78;66.63;100275.84;4403242;32;31903;-74
2023/12/08 06:12:41;;;;;;;;;;;;;;;4.64;66.80;100276.47;4414123;32;33994;-75
2023/12/08 06:15:09;;;;;;;;;;;;;;;4.81;66.45;100286.34;4416078;32;34056;-74
2023/12/08 06:17:37;;;;;;;;;;;;;;;4.77;66.57;100292.03;4416459;32;33934;-75
2023/12/08 06:20:08;;;;;;;;;;;;;;;4.56;66.98;100293.84;4415787;32;33423;-75
2023/12/08 06:22:36;;;;;;;;;;;;;;;4.47;67.10;100294.03;4417358;32;33067;-75
2023/12/08 06:25:07;;;;;;;;;;;;;;;4.47;66.92;100294.03;4417772;32;33559;-75
2023/12/08 06:27:35;;;;;;;;;;;;;;;4.64;66.52;100302.13;4415144;32;33449;-74
2023/12/08 06:30:03;;;;;;;;;;;;;;;4.83;65.73;100299.25;4403244;32;32899;-74
2023/12/08 06:32:31;;;;;;;;;;;;;;;4.93;65.05;100296.62;4415634;32;33703;-75
2023/12/08 06:34:58;;;;;;;;;;;;;;;4.68;65.76;100296.47;4413931;32;35139;-74
2023/12/08 06:37:26;;;;;;;;;;;;;;;4.81;65.72;100303.41;4413443;32;33921;-75
2023/12/08 06:39:55;;;;;;;;;;;;;;;5.03;64.30;100296.53;4416099;32;33401;-75
2023/12/08 06:42:22;;;;;;;;;;;;;;;4.66;65.33;100295.44;4389703;32;33783;-76
2023/12/08 06:44:49;;;;;;;;;;;;;;;4.47;66.49;100286.34;4415878;32;34086;-76
2023/12/08 06:47:18;;;;;;;;;;;;;;;4.62;66.37;100290.88;4409764;32;34136;-75
2023/12/08 06:49:46;;;;;;;;;;;;;;;4.71;66.00;100288.97;4416146;32;33759;-76
2023/12/08 06:52:13;;;;;;;;;;;;;;;4.61;66.69;100297.66;4416331;32;34175;-75
2023/12/08 06:54:41;;;;;;;;;;;;;;;4.71;65.90;100301.81;4415657;32;34002;-75
2023/12/08 06:57:08;;;;;;;;;;;;;;;4.58;66.53;100307.69;4417659;32;34333;-76
2023/12/08 06:59:36;;;;;;;;;;;;;;;4.69;66.41;100300.78;4415874;32;33189;-76
2023/12/08 07:02:04;;;;;;;;;;;;;;;4.50;67.12;100303.62;4399285;32;33948;-76
2023/12/08 07:04:31;;;;;;;;;;;;;;;4.65;66.80;100303.91;4415833;32;34216;-76
2023/12/08 07:06:58;;;;;;;;;;;;;;;4.52;67.07;100307.22;4415064;32;35240;-76
2023/12/08 07:09:27;;;;;;;;;;;;;;;4.58;67.03;100311.91;4415717;32;33519;-76
2023/12/08 07:11:55;;;;;;;;;;;;;;;4.70;66.79;100312.88;4397351;32;32473;-76
2023/12/08 07:14:23;;;;;;;;;;;;;;;5.01;65.86;100315.19;4414977;32;33978;-76
2023/12/08 07:16:51;;;;;;;;;;;;;;;4.74;66.79;100320.00;4416188;32;34188;-76
2023/12/08 07:19:19;;;;;;;;;;;;;;;4.79;66.63;100328.97;4416293;32;33179;-76
2023/12/08 07:21:46;;;;;;;;;;;;;;;4.92;66.55;100331.69;4395657;32;35859;-76
2023/12/08 07:24:16;;;;;;;;;;;;;;;4.76;66.91;100328.72;4418199;32;33771;-75
2023/12/08 07:26:44;;;;;;;;;;;;;;;4.85;66.59;100324.28;4416755;32;34957;-76
2023/12/08 07:29:11;;;;;;;;;;;;;;;4.70;66.96;100318.00;4417533;32;33147;-76
2023/12/08 07:31:38;;;;;;;;;;;;;;;4.96;66.22;100316.50;4415248;32;34925;-75
2023/12/08 07:34:05;;;;;;;;;;;;;;;5.12;65.61;100311.75;4415046;32;34947;-75
2023/12/08 07:36:33;;;;;;;;;;;;;;;5.08;65.91;100317.41;4416518;32;33926;-75
2023/12/08 07:39:01;;;;;;;;;;;;;;;5.02;66.28;100306.69;4415836;32;33467;-75
2023/12/08 07:41:28;;;;;;;;;;;;;;;5.20;65.56;100300.38;4416001;32;34203;-75
2023/12/08 07:43:56;;;;;;;;;;;;;;;5.03;66.02;100293.97;4415438;32;33807;-75
2023/12/08 07:46:24;;;;;;;;;;;;;;;5.10;65.98;100292.75;4418301;32;34537;-76
2023/12/08 07:48:51;;;;;;;;;;;;;;;5.10;65.79;100290.19;4418318;32;33296;-75
2023/12/08 07:51:19;;;;;;;;;;;;;;;5.20;65.51;100297.78;4417533;32;33868;-76
2023/12/08 07:53:47;;;;;;;;;;;;;;;5.34;65.33;100305.63;4416375;32;34793;-76
2023/12/08 07:56:14;;;;;;;;;;;;;;;5.43;65.25;100311.44;4416823;32;34940;-76
2023/12/08 07:58:41;;;;;;;;;;;;;;;5.40;65.34;100312.09;4402124;32;34233;-76
2023/12/08 08:01:09;;;;;;;;;;;;;;;5.40;65.30;100317.22;4415005;32;34741;-77
2023/12/08 08:03:38;;;;;;;;;;;;;;;5.27;66.07;100318.03;4417311;32;35366;-76
2023/12/08 08:06:06;;;;;;;;;;;;;;;5.26;66.21;100318.78;4403756;32;34075;-75
2023/12/08 08:08:34;;;;;;;;;;;;;;;5.44;65.97;100318.34;4411996;32;32959;-74
2023/12/08 08:11:02;;;;;;;;;;;;;;;5.34;66.98;100315.91;4416523;32;33966;-76
2023/12/08 08:13:29;;;;;;;;;;;;;;;5.41;68.41;100313.91;4416220;32;34042;-76
2023/12/08 08:15:57;;;;;;;;;;;;;;;5.48;67.94;100307.50;4415621;32;35205;-76
2023/12/08 08:18:25;;;;;;;;;;;;;;;5.66;67.17;100301.16;4414810;32;33500;-76
2023/12/08 08:20:52;;;;;;;;;;;;;;;5.74;66.56;100304.28;4414635;32;33794;-76
2023/12/08 08:23:20;;;;;;;;;;;;;;;5.68;66.70;100307.28;4413308;32;34921;-76
2023/12/08 08:25:48;;;;;;;;;;;;;;;5.94;65.53;100308.25;4416110;32;36065;-76
2023/12/08 08:28:15;;;;;;;;;;;;;;;5.86;65.45;100309.41;4418826;32;34374;-76
2023/12/08 08:30:42;;;;;;;;;;;;;;;5.74;66.11;100309.41;4415748;32;33442;-76
2023/12/08 08:33:10;;;;;;;;;;;;;;;5.76;65.96;100306.97;4418490;32;34899;-76
2023/12/08 08:35:39;;;;;;;;;;;;;;;5.91;65.52;100303.81;4417278;32;33949;-76
2023/12/08 08:38:07;;;;;;;;;;;;;;;6.06;65.09;100298.88;4414915;32;34228;-75
2023/12/08 08:40:35;;;;;;;;;;;;;;;6.08;65.03;100294.75;4416814;32;34846;-75
2023/12/08 08:43:02;;;;;;;;;;;;;;;5.94;65.30;100295.41;4416610;32;32910;-75
2023/12/08 08:45:29;;;;;;;;;;;;;;;6.08;64.90;100302.47;4418179;32;34507;-75
2023/12/08 08:47:57;;;;;;;;;;;;;;;5.88;65.23;100290.72;4404029;32;32862;-75
2023/12/08 08:50:25;;;;;;;;;;;;;;;6.04;64.94;100279.88;4415315;32;34180;-75
2023/12/08 08:52:59;;;;;;;;;;;;;;;6.02;64.69;100259.97;4417161;32;33635;-75
2023/12/08 08:55:27;;;;;;;;;;;;;;;5.90;65.37;100267.69;4415324;32;34454;-76
2023/12/08 08:57:55;;;;;;;;;;;;;;;6.06;65.16;100301.44;4411890;32;33694;-76
2023/12/08 09:00:26;;;;;;;;;;;;;;;5.97;65.62;100323.03;4401149;32;33960;-76
2023/12/08 09:02:53;;;;;;;;;;;;;;;5.93;65.77;100334.78;4411441;32;33145;-75
2023/12/08 09:05:20;;;;;;;;;;;;;;;6.09;65.21;100321.34;4399979;32;35836;-76
2023/12/08 09:07:48;;;;;;;;;;;;;;;6.07;64.95;100321.25;4416877;32;33168;-76
2023/12/08 09:10:15;;;;;;;;;;;;;;;6.13;65.11;100335.34;4416552;32;34617;-76
2023/12/08 09:12:44;;;;;;;;;;;;;;;5.92;65.90;100340.69;4417624;32;35253;-75
2023/12/08 09:15:14;;;;;;;;;;;;;;;6.04;65.32;100315.88;4418108;32;35135;-75
2023/12/08 09:17:41;;;;;;;;;;;;;;;6.14;65.08;100307.12;4414013;32;31780;-75
2023/12/08 09:20:14;;;;;;;;;;;;;;;6.12;65.34;100315.53;4418680;32;34909;-75
2023/12/08 09:22:41;;;;;;;;;;;;;;;6.10;65.51;100312.84;4416121;32;33818;-75
2023/12/08 09:25:09;;;;;;;;;;;;;;;6.17;65.38;100309.91;4405893;32;34659;-75
2023/12/08 09:27:36;;;;;;;;;;;;;;;6.14;65.64;100301.09;4418896;32;34227;-75
2023/12/08 09:30:05;;;;;;;;;;;;;;;6.42;64.63;100289.38;4405947;32;34224;-75
2023/12/08 09:32:33;;;;;;;;;;;;;;;6.27;64.78;100303.75;4418857;32;33731;-75
2023/12/08 09:35:00;;;;;;;;;;;;;;;6.19;65.30;100300.63;4418456;32;33157;-75
2023/12/08 09:37:27;;;;;;;;;;;;;;;6.24;65.23;100295.81;4418820;32;33421;-75
2023/12/08 09:40:05;;;;;;;;;;;;;;;6.38;64.39;100292.53;4400583;32;33390;-75
2023/12/08 09:42:42;;;;;;;;;;;;;;;6.46;64.12;100286.22;4399969;32;34016;-75
2023/12/08 09:45:12;;;;;;;;;;;;;;;6.25;65.06;100279.59;4418933;32;34857;-76
2023/12/08 09:47:41;;;;;;;;;;;;;;;6.24;65.42;100282.97;4416994;32;32477;-75
2023/12/08 09:50:12;;;;;;;;;;;;;;;6.39;65.13;100271.13;4404684;32;32967;-75
2023/12/08 09:52:40;;;;;;;;;;;;;;;6.50;64.82;100264.16;4418134;32;34723;-76
2023/12/08 09:55:07;;;;;;;;;;;;;;;6.64;64.41;100265.09;4404134;32;32833;-75
2023/12/08 09:57:35;;;;;;;;;;;;;;;6.58;64.27;100265.56;4403303;32;35859;-75
2023/12/08 10:00:06;;;;;;;;;;;;;;;6.63;63.93;100268.47;4405234;32;33773;-76
2023/12/08 10:02:34;;;;;;;;;;;;;;;6.48;64.37;100258.00;4414290;32;32908;-75
2023/12/08 10:05:01;;;;;;;;;;;;;;;6.45;64.42;100252.66;4418182;32;33350;-75
2023/12/08 10:07:31;;;;;;;;;;;;;;;6.32;66.78;100256.06;4415532;32;33280;-75
2023/12/08 10:09:59;;;;;;;;;;;;;;;6.53;65.43;100260.87;4419083;32;32989;-75
2023/12/08 10:12:27;;;;;;;;;;;;;;;6.67;64.68;100249.88;4405486;32;33936;-75
2023/12/08 10:14:55;;;;;;;;;;;;;;;6.61;64.59;100255.50;4419196;32;34470;-75
2023/12/08 10:17:23;;;;;;;;;;;;;;;6.55;65.01;100259.31;4404120;32;33002;-75
2023/12/08 10:20:08;;;;;;;;;;;;;;;6.53;65.46;100255.75;4418306;32;34242;-75
2023/12/08 10:22:43;;;;;;;;;;;;;;;6.65;65.32;100241.16;4416299;32;34079;-75
2023/12/08 10:25:11;;;;;;;;;;;;;;;6.71;64.50;100238.97;4414976;32;34288;-75
2023/12/08 10:27:38;;;;;;;;;;;;;;;6.41;65.40;100246.44;4417808;32;33344;-75
2023/12/08 10:30:06;;;;;;;;;;;;;;;6.33;65.25;100242.41;4417443;32;33915;-75
2023/12/08 10:32:34;;;;;;;;;;;;;;;6.28;65.26;100246.38;4405220;32;32576;-75
2023/12/08 10:35:01;;;;;;;;;;;;;;;6.48;64.53;100243.47;4419105;32;34908;-75
2023/12/08 10:37:29;;;;;;;;;;;;;;;6.27;65.34;100249.72;4418946;32;33473;-75
2023/12/08 10:39:56;;;;;;;;;;;;;;;6.43;64.85;100234.56;4404934;32;33065;-75
2023/12/08 10:42:23;;;;;;;;;;;;;;;6.43;65.01;100241.34;4418733;32;33087;-75
2023/12/08 10:44:51;;;;;;;;;;;;;;;6.50;64.97;100235.84;4404756;32;34487;-75
2023/12/08 10:47:20;;;;;;;;;;;;;;;6.58;64.92;100238.94;4418804;32;33120;-75
2023/12/08 10:49:48;;;;;;;;;;;;;;;6.56;64.99;100236.25;4402908;32;34462;-75
2023/12/08 10:52:16;;;;;;;;;;;;;;;6.64;64.60;100229.06;4418939;32;34909;-75
2023/12/08 10:54:44;;;;;;;;;;;;;;;6.69;64.64;100230.25;4418575;32;34436;-75
2023/12/08 10:57:11;;;;;;;;;;;;;;;6.59;64.77;100239.06;4404781;32;32760;-75
2023/12/08 10:59:39;;;;;;;;;;;;;;;6.69;64.71;100222.53;4418148;32;34680;-75
2023/12/08 11:02:08;;;;;;;;;;;;;;;6.81;64.43;100220.78;4418283;32;34192;-75
2023/12/08 11:04:36;;;;;;;;;;;;;;;6.99;63.40;100213.37;4418913;32;33280;-75
2023/12/08 11:07:13;;;;;;;;;;;;;;;7.02;63.14;100207.53;4399184;32;33291;-75
2023/12/08 11:09:41;;;;;;;;;;;;;;;6.98;63.09;100209.00;4386880;32;33332;-75
2023/12/08 11:12:08;;;;;;;;;;;;;;;6.82;63.63;100214.84;4404812;32;33449;-75
2023/12/08 11:14:44;;;;;;;;;;;;;;;6.84;63.78;100212.38;4403484;32;34508;-75
2023/12/08 11:17:16;;;;;;;;;;;;;;;6.79;63.84;100209.47;4403243;32;34302;-75
2023/12/08 11:19:43;;;;;;;;;;;;;;;6.83;63.91;100205.44;4417800;32;34957;-76
2023/12/08 11:22:11;;;;;;;;;;;;;;;6.86;63.82;100206.53;4405278;32;34149;-75
2023/12/08 11:24:39;;;;;;;;;;;;;;;6.82;63.78;100207.13;4403157;32;34390;-75
2023/12/08 11:27:14;;;;;;;;;;;;;;;6.87;63.24;100200.56;4414986;32;33736;-75
2023/12/08 11:29:43;;;;;;;;;;;;;;;6.65;63.41;100194.81;4404360;32;34997;-75
2023/12/08 11:32:34;;;;;;;;;;;;;;;6.74;63.68;100194.50;4417566;32;33266;-75
2023/12/08 11:35:03;;;;;;;;;;;;;;;6.77;63.18;100190.47;4389625;32;34097;-75
2023/12/08 11:37:32;;;;;;;;;;;;;;;6.86;63.18;100182.47;4402854;32;34077;-75
2023/12/08 11:40:00;;;;;;;;;;;;;;;6.74;63.62;100195.44;4417418;32;34869;-75
2023/12/08 11:42:28;;;;;;;;;;;;;;;6.76;63.79;100193.84;4417904;32;34268;-75
2023/12/08 11:44:56;;;;;;;;;;;;;;;6.72;63.75;100201.25;4418763;32;34045;-75
2023/12/08 11:47:24;;;;;;;;;;;;;;;6.73;63.55;100188.47;4416909;32;33505;-75
2023/12/08 11:49:53;;;;;;;;;;;;;;;6.66;63.33;100191.44;4416063;32;34259;-75
2023/12/08 11:52:25;;;;;;;;;;;;;;;6.73;63.10;100185.03;4400989;32;34246;-75
2023/12/08 11:55:26;;;;;;;;;;;;;;;6.69;63.06;100183.94;4417403;32;33412;-75
2023/12/08 11:58:01;;;;;;;;;;;;;;;6.64;63.48;100185.28;4415173;32;32327;-75
2023/12/08 12:00:30;;;;;;;;;;;;;;;6.66;63.45;100186.28;4416151;32;34741;-75
2023/12/08 12:02:58;;;;;;;;;;;;;;;6.63;63.64;100186.09;4405428;32;35168;-75
2023/12/08 12:05:26;;;;;;;;;;;;;;;6.88;62.67;100181.75;4405163;32;34118;-75
2023/12/08 12:07:54;;;;;;;;;;;;;;;6.88;62.59;100184.34;4417311;32;33634;-75
2023/12/08 12:10:23;;;;;;;;;;;;;;;6.94;62.41;100183.84;4405137;32;34589;-75
2023/12/08 12:13:00;;;;;;;;;;;;;;;6.70;63.05;100188.25;4400764;32;33545;-75
2023/12/08 12:15:30;;;;;;;;;;;;;;;6.65;63.17;100194.81;4399175;32;34808;-75
2023/12/08 12:17:58;;;;;;;;;;;;;;;6.73;63.34;100193.63;4406309;32;33019;-74
2023/12/08 12:20:29;;;;;;;;;;;;;;;6.60;63.42;100196.19;4421521;32;32717;-74
2023/12/08 12:22:57;;;;;;;;;;;;;;;6.57;63.64;100191.72;4401648;32;32139;-77
2023/12/08 12:25:24;;;;;;;;;;;;;;;6.63;63.50;100196.41;4420827;32;34610;-76
2023/12/08 12:27:52;;;;;;;;;;;;;;;6.72;63.66;100202.13;4410295;32;33172;-74
2023/12/08 12:30:20;;;;;;;;;;;;;;;6.87;62.83;100203.13;4419093;32;34162;-74
2023/12/08 12:32:47;;;;;;;;;;;;;;;6.88;63.34;100183.47;4415810;32;33894;-75
2023/12/08 12:35:15;;;;;;;;;;;;;;;6.84;63.04;100190.09;4402393;32;34014;-75
2023/12/08 12:37:43;;;;;;;;;;;;;;;6.46;63.89;100187.53;4417398;32;34340;-75
2023/12/08 12:40:10;;;;;;;;;;;;;;;6.74;62.73;100189.37;4412775;32;32696;-74
2023/12/08 12:42:45;;;;;;;;;;;;;;;6.70;62.71;100188.25;4386238;32;32298;-76
2023/12/08 12:45:29;;;;;;;;;;;;;;;7.14;75.83;100172.25;4416755;32;33131;-75
2023/12/08 12:48:03;;;;;;;;;;;;;;;7.25;74.86;100171.25;4417471;32;33648;-75
2023/12/08 12:50:43;;;;;;;;;;;;;;;7.02;72.04;100166.31;4404069;32;34033;-75
2023/12/08 12:53:11;;;;;;;;;;;;;;;6.98;70.62;100160.06;4402208;32;33724;-75